Richmond International Airport

Airport
ICAO code: 
KRIC
Summary
ICAO Region: 
NAM
Territory: 
Location: 
Richmond, Virginia,
Coordinates: 
Aerial View: 
37° 30' 26.863" N, 77° 20' 1.309" W
Metar
Observation
KRIC 040654Z 00000KT 10SM FEW300 06/03 A3004 RMK AO2 SLP175 T00560033
Station
Richmond, Richmond International Airport
Date/Time
2021-12-04 06:54:00
Wind direction
Wind speed
00 kts
Lowest cloud amount
few clouds
Temperature
5.6°C
Dew point
3.3°C
Humidity
85%
Weather condition
n/a

Description

Richmond International Airport is a joint civil-military public airport, located in Henrico County, 11 km southeast of the central business district of Richmond, Virginia.

Climatology

Humid “subtropical” climate (Köppen climate classification Cfa) - characterized by hot, humid summers and cool winters. Significant amounts of precipitation occur in all seasons in most areas. Winter rainfall (and sometimes snowfall) is associated with large storms that the westerlies steer from west to east. Most summer rainfall occurs during thunderstorms and occasional tropical storms (hurricanes).

Runways

Designator Length Width Surface Rops
7/25 1623 30 ASP Yes/Yes
2/20 2014 46 ASP Yes/Yes
16/34 2744 46 ASP Yes/Yes
Airport map: 
Aerial View: 

SKYbrary Partners:

Safety knowledge contributed by: